Time;durP1;ratioP1;P1;durP2;ratioP2;P2;SDS_P1;SDS_P2;PMS_P1;PMS_P2;Temp;Humidity;BMP_temperature;BMP_pressure;BME280_temperature;BME280_humidity;BME280_pressure;Samples;Min_cycle;Max_cycle;Signal;HPM_P1;HPM_P2
2023/04/14 00:01:14;;;;;;;15.43;8.88;;;;;;;4.73;80.57;100810.78;5028499;28;20028;-63
2023/04/14 00:03:40;;;;;;;15.27;8.63;;;;;;;4.73;80.72;100805.50;5019718;28;20030;-63
2023/04/14 00:06:05;;;;;;;13.07;8.40;;;;;;;4.71;80.41;100810.84;5035776;28;20486;-63
2023/04/14 00:08:30;;;;;;;18.77;8.32;;;;;;;4.71;80.53;100804.75;5034565;28;20025;-63
2023/04/14 00:10:55;;;;;;;16.48;9.52;;;;;;;4.69;81.09;100799.56;5024968;28;20045;-63
2023/04/14 00:13:21;;;;;;;15.00;8.60;;;;;;;4.67;80.71;100796.16;5035517;28;20037;-63
2023/04/14 00:15:46;;;;;;;16.70;9.00;;;;;;;4.64;81.34;100801.59;5029330;28;20048;-63
2023/04/14 00:18:11;;;;;;;13.70;8.63;;;;;;;4.62;81.09;100806.94;5035009;28;20080;-63
2023/04/14 00:20:37;;;;;;;15.02;8.80;;;;;;;4.60;81.44;100803.53;5032816;28;20098;-63
2023/04/14 00:23:02;;;;;;;15.25;9.20;;;;;;;4.58;81.41;100804.53;5031237;28;20025;-64
2023/04/14 00:25:27;;;;;;;14.15;9.50;;;;;;;4.56;81.78;100796.75;5035466;28;20022;-63
2023/04/14 00:27:52;;;;;;;17.05;10.65;;;;;;;4.55;82.57;100799.47;5028410;28;20041;-63
2023/04/14 00:30:18;;;;;;;17.60;10.63;;;;;;;4.54;82.18;100805.63;5035112;28;20022;-63
2023/04/14 00:32:43;;;;;;;19.17;11.05;;;;;;;4.52;82.58;100807.50;5031005;28;20426;-63
2023/04/14 00:35:08;;;;;;;17.60;10.63;;;;;;;4.52;82.55;100807.50;5034737;28;20109;-63
2023/04/14 00:37:34;;;;;;;19.33;11.23;;;;;;;4.51;81.83;100806.63;5033519;28;20041;-63
2023/04/14 00:39:59;;;;;;;18.27;10.70;;;;;;;4.50;82.71;100801.47;5032221;28;20057;-63
2023/04/14 00:42:24;;;;;;;18.10;10.93;;;;;;;4.52;83.25;100810.13;5033346;28;20378;-63
2023/04/14 00:44:50;;;;;;;17.80;11.15;;;;;;;4.47;82.98;100815.63;5023424;28;20560;-63
2023/04/14 00:47:16;;;;;;;21.55;11.40;;;;;;;4.47;83.73;100812.16;5032042;28;20045;-63
2023/04/14 00:49:41;;;;;;;19.38;11.43;;;;;;;4.44;83.48;100810.53;5033818;28;20485;-63
2023/04/14 00:52:06;;;;;;;16.25;10.13;;;;;;;4.42;83.06;100813.22;5033715;28;20022;-63
2023/04/14 00:54:33;;;;;;;15.18;9.90;;;;;;;4.41;83.56;100810.66;5023317;28;20026;-63
2023/04/14 00:56:59;;;;;;;16.88;9.68;;;;;;;4.37;84.38;100814.41;5033697;28;20025;-63
2023/04/14 00:59:27;;;;;;;16.27;8.77;;;;;;;4.36;84.20;100816.16;5032478;28;20025;-63
2023/04/14 01:01:53;;;;;;;14.88;8.88;;;;;;;4.34;84.03;100822.44;5013726;28;20116;-63
2023/04/14 01:04:19;;;;;;;17.73;8.07;;;;;;;4.30;84.12;100819.13;5018127;28;20100;-63
2023/04/14 01:06:44;;;;;;;16.50;7.38;;;;;;;4.28;84.46;100821.00;5028054;28;20478;-63
2023/04/14 01:09:10;;;;;;;11.63;6.80;;;;;;;4.28;84.59;100826.25;5022907;28;20022;-63
2023/04/14 01:11:41;;;;;;;17.25;7.10;;;;;;;4.22;84.07;100835.28;5033242;28;20124;-63
2023/04/14 01:14:17;;;;;;;15.35;6.85;;;;;;;4.19;84.77;100834.59;5026854;28;20037;-63
2023/04/14 01:16:48;;;;;;;18.85;6.70;;;;;;;4.13;84.87;100834.88;5017977;28;20040;-63
2023/04/14 01:19:44;;;;;;;13.10;5.85;;;;;;;4.16;84.61;100842.63;5026247;28;20065;-63
2023/04/14 01:22:13;;;;;;;15.70;6.03;;;;;;;4.11;84.63;100834.94;5035144;28;20030;-63
2023/04/14 01:24:38;;;;;;;12.37;5.20;;;;;;;4.11;84.85;100831.47;5034251;28;20445;-63
2023/04/14 01:27:11;;;;;;;10.83;5.53;;;;;;;4.09;85.29;100826.31;5025513;28;20395;-63
2023/04/14 01:30:02;;;;;;;11.95;5.47;;;;;;;4.07;85.32;100830.78;5031375;28;20741;-63
2023/04/14 01:32:30;;;;;;;11.80;5.30;;;;;;;4.02;85.57;100830.16;5034801;28;20396;-63
2023/04/14 01:35:07;;;;;;;12.05;4.90;;;;;;;4.01;86.11;100828.47;5014044;28;20097;-63
2023/04/14 01:37:39;;;;;;;17.38;5.28;;;;;;;3.98;86.43;100840.00;5022642;28;20021;-63
2023/04/14 01:40:10;;;;;;;17.60;5.68;;;;;;;3.97;86.61;100840.91;5023411;28;20051;-63
2023/04/14 01:42:38;;;;;;;12.55;5.68;;;;;;;3.93;86.97;100839.38;5034358;28;20028;-63
2023/04/14 01:45:09;;;;;;;13.63;5.70;;;;;;;3.89;87.78;100835.16;5033487;28;20048;-63
2023/04/14 01:47:36;;;;;;;14.10;5.53;;;;;;;3.86;87.84;100838.81;5027785;28;20029;-63
2023/04/14 01:50:04;;;;;;;16.02;5.88;;;;;;;3.81;87.38;100840.78;5032229;28;20049;-63
2023/04/14 01:52:31;;;;;;;13.00;5.45;;;;;;;3.82;88.15;100844.28;5033287;28;20030;-63
2023/04/14 01:54:58;;;;;;;14.23;6.05;;;;;;;3.80;87.93;100843.53;5033276;28;20026;-63
2023/04/14 01:57:25;;;;;;;12.73;5.70;;;;;;;3.80;88.62;100843.53;5027358;28;20030;-63
2023/04/14 01:59:53;;;;;;;14.55;5.85;;;;;;;3.77;87.64;100841.03;5032230;28;20049;-63
2023/04/14 02:02:21;;;;;;;11.60;5.28;;;;;;;3.77;88.21;100844.50;5020353;28;20076;-63
2023/04/14 02:04:48;;;;;;;11.00;5.32;;;;;;;3.75;88.00;100848.97;5032600;28;20029;-63
2023/04/14 02:07:17;;;;;;;12.43;5.30;;;;;;;3.72;87.70;100841.25;5033081;28;20041;-63
2023/04/14 02:09:44;;;;;;;10.00;4.70;;;;;;;3.74;88.19;100843.81;5019960;28;20049;-63
2023/04/14 02:12:10;;;;;;;11.38;5.40;;;;;;;3.71;88.34;100847.41;5027226;28;20022;-63
2023/04/14 02:14:39;;;;;;;9.90;4.97;;;;;;;3.68;88.78;100853.69;5032457;28;20021;-62
2023/04/14 02:17:06;;;;;;;10.60;4.78;;;;;;;3.66;88.69;100845.03;5028528;28;20064;-63
2023/04/14 02:19:32;;;;;;;10.82;5.13;;;;;;;3.64;89.07;100853.91;5033198;28;20053;-63
2023/04/14 02:21:59;;;;;;;11.43;5.03;;;;;;;3.58;89.62;100846.28;5033394;28;20033;-63
2023/04/14 02:24:25;;;;;;;9.05;4.57;;;;;;;3.54;89.97;100850.84;5022862;28;20026;-62
2023/04/14 02:27:00;;;;;;;9.88;4.63;;;;;;;3.55;89.83;100856.94;5033342;28;20071;-63
2023/04/14 02:29:26;;;;;;;6.53;4.78;;;;;;;3.51;90.24;100861.50;5022728;28;20057;-63
2023/04/14 02:31:58;;;;;;;8.75;4.47;;;;;;;3.46;90.21;100853.81;5033027;28;20033;-63
2023/04/14 02:34:28;;;;;;;7.50;4.45;;;;;;;3.43;89.84;100853.13;5033115;28;20049;-63
2023/04/14 02:36:56;;;;;;;9.18;4.25;;;;;;;3.41;90.51;100853.19;5026108;28;20112;-63
2023/04/14 02:39:28;;;;;;;11.02;4.93;;;;;;;3.37;90.84;100856.88;5033325;28;20029;-63
2023/04/14 02:42:01;;;;;;;14.30;4.68;;;;;;;3.34;91.44;100859.66;5033120;28;20466;-63
2023/04/14 02:44:31;;;;;;;10.85;4.38;;;;;;;3.30;91.86;100858.94;5025276;28;20072;-63
2023/04/14 02:47:02;;;;;;;9.30;4.57;;;;;;;3.27;91.51;100869.59;5032636;28;20026;-62
2023/04/14 02:49:33;;;;;;;13.43;5.22;;;;;;;3.27;92.06;100872.22;5033172;28;20104;-62
2023/04/14 02:51:59;;;;;;;11.48;4.63;;;;;;;3.28;92.71;100878.31;5028730;28;20100;-63
2023/04/14 02:54:26;;;;;;;11.10;4.35;;;;;;;3.27;92.54;100872.22;5032385;28;20374;-63
2023/04/14 02:56:52;;;;;;;13.43;4.90;;;;;;;3.25;92.86;100868.81;5033102;28;20029;-63
2023/04/14 02:59:19;;;;;;;11.57;5.00;;;;;;;3.22;93.30;100866.31;5032768;28;20025;-62
2023/04/14 03:01:47;;;;;;;10.68;4.22;;;;;;;3.23;93.04;100868.03;5022146;28;20544;-62
2023/04/14 03:04:14;;;;;;;13.98;4.68;;;;;;;3.23;93.90;100868.03;5033135;28;20028;-63
2023/04/14 03:06:40;;;;;;;9.63;4.18;;;;;;;3.25;93.22;100873.22;5025171;28;20061;-63
2023/04/14 03:09:06;;;;;;;8.52;4.28;;;;;;;3.25;93.26;100871.44;5014375;28;20467;-62
2023/04/14 03:11:33;;;;;;;13.13;4.50;;;;;;;3.25;93.68;100881.94;5024552;28;20522;-62
2023/04/14 03:14:00;;;;;;;10.77;4.55;;;;;;;3.22;93.53;100876.81;5032014;28;20026;-62
2023/04/14 03:16:27;;;;;;;8.20;3.70;;;;;;;3.22;92.80;100871.56;5032442;28;20025;-61
2023/04/14 03:18:54;;;;;;;9.57;4.40;;;;;;;3.23;93.35;100878.53;5030824;28;20026;-62
2023/04/14 03:21:20;;;;;;;10.80;4.60;;;;;;;3.19;93.60;100873.50;5031924;28;20398;-62
2023/04/14 03:23:47;;;;;;;10.32;4.50;;;;;;;3.17;94.08;100876.19;5031912;28;20034;-62
2023/04/14 03:26:17;;;;;;;10.88;4.82;;;;;;;3.12;94.44;100876.38;5030396;28;20415;-62
2023/04/14 03:28:45;;;;;;;11.73;5.40;;;;;;;3.10;94.70;100872.13;5030843;28;20104;-62
2023/04/14 03:31:13;;;;;;;15.77;5.10;;;;;;;3.08;95.12;100871.34;5036091;28;20014;-62
2023/04/14 03:33:42;;;;;;;10.75;4.90;;;;;;;3.06;95.39;100878.44;5032701;28;20099;-62
2023/04/14 03:36:08;;;;;;;11.17;4.93;;;;;;;3.03;95.46;100878.56;5036247;28;20026;-62
2023/04/14 03:38:35;;;;;;;12.45;4.82;;;;;;;3.03;95.02;100881.19;5035787;28;20417;-62
2023/04/14 03:41:04;;;;;;;12.57;4.55;;;;;;;3.03;95.36;100886.44;5029713;28;20029;-63
2023/04/14 03:43:32;;;;;;;9.43;4.13;;;;;;;3.02;95.78;100880.34;5032419;28;20068;-62
2023/04/14 03:45:57;;;;;;;13.20;4.65;;;;;;;3.02;95.93;100884.75;5035976;28;20033;-62
2023/04/14 03:48:28;;;;;;;9.95;4.57;;;;;;;3.01;96.06;100878.63;5035329;28;20029;-62
2023/04/14 03:50:56;;;;;;;9.55;4.65;;;;;;;2.99;96.00;100880.47;5038503;28;20049;-61
2023/04/14 03:53:22;;;;;;;11.68;5.07;;;;;;;3.00;95.65;100882.19;5030424;28;20018;-63
2023/04/14 03:55:50;;;;;;;11.40;4.60;;;;;;;2.97;96.06;100880.53;5035690;28;20041;-62
2023/04/14 03:58:17;;;;;;;13.43;5.10;;;;;;;2.97;96.13;100882.31;5035635;28;20022;-63
2023/04/14 04:00:43;;;;;;;9.07;4.88;;;;;;;2.95;95.81;100885.00;5034739;28;20116;-63
2023/04/14 04:03:09;;;;;;;12.55;4.97;;;;;;;2.96;96.25;100888.47;5034090;28;20061;-63
2023/04/14 04:05:38;;;;;;;12.13;4.65;;;;;;;2.93;96.63;100897.34;5034873;28;20450;-62
2023/04/14 04:08:05;;;;;;;9.98;4.50;;;;;;;2.93;97.21;100897.34;5030394;28;20080;-64
2023/04/14 04:10:34;;;;;;;10.20;5.20;;;;;;;2.93;97.01;100896.47;5025088;28;20099;-63
2023/04/14 04:13:01;;;;;;;12.82;4.47;;;;;;;2.91;97.05;100901.78;5034434;28;20052;-62
2023/04/14 04:15:27;;;;;;;12.27;5.10;;;;;;;2.89;97.24;100893.13;5035557;28;20025;-63
2023/04/14 04:17:54;;;;;;;14.38;4.70;;;;;;;2.86;97.40;100895.06;5035677;28;20025;-63
2023/04/14 04:20:21;;;;;;;13.48;5.03;;;;;;;2.85;97.33;100896.84;5031820;28;20049;-63
2023/04/14 04:22:49;;;;;;;10.95;5.20;;;;;;;2.85;97.77;100902.09;5035269;28;20037;-62
2023/04/14 04:25:15;;;;;;;13.15;5.10;;;;;;;2.84;97.48;100894.28;5035578;28;20474;-63
2023/04/14 04:27:40;;;;;;;13.82;4.97;;;;;;;2.82;97.86;100891.72;5029101;28;20092;-62
2023/04/14 04:30:07;;;;;;;9.35;4.32;;;;;;;2.81;97.87;100895.25;5026823;28;20022;-62
2023/04/14 04:32:32;;;;;;;10.63;4.68;;;;;;;2.80;98.06;100901.44;5026802;28;20457;-63
2023/04/14 04:34:58;;;;;;;14.30;4.88;;;;;;;2.76;98.03;100900.72;5034681;28;20021;-63
2023/04/14 04:37:27;;;;;;;12.27;4.45;;;;;;;2.76;98.28;100905.09;5034761;28;20417;-63
2023/04/14 04:39:55;;;;;;;11.90;4.40;;;;;;;2.76;98.54;100902.47;5035016;28;20030;-63
2023/04/14 04:42:21;;;;;;;10.80;5.00;;;;;;;2.78;97.99;100904.13;5033567;28;20052;-63
2023/04/14 04:44:46;;;;;;;12.85;4.35;;;;;;;2.78;98.58;100900.63;5034586;28;20029;-63
2023/04/14 04:47:12;;;;;;;11.93;4.93;;;;;;;2.78;98.75;100900.63;5025588;28;20038;-63
2023/04/14 04:49:37;;;;;;;12.30;4.43;;;;;;;2.79;98.67;100904.97;5033895;28;20034;-63
2023/04/14 04:52:02;;;;;;;10.23;4.22;;;;;;;2.80;98.76;100906.69;5035263;28;20489;-63
2023/04/14 04:54:28;;;;;;;11.80;4.88;;;;;;;2.81;98.61;100912.75;5035423;28;20095;-63
2023/04/14 04:56:53;;;;;;;11.10;5.10;;;;;;;2.82;98.55;100910.06;5029204;28;20104;-63
2023/04/14 04:59:18;;;;;;;13.93;5.32;;;;;;;2.84;98.13;100904.75;5035080;28;20021;-65
2023/04/14 05:01:43;;;;;;;8.25;4.35;;;;;;;2.86;97.62;100906.38;5028712;28;20093;-63
2023/04/14 05:04:09;;;;;;;9.73;4.43;;;;;;;2.87;97.33;100902.84;5034857;28;20025;-62
2023/04/14 05:06:36;;;;;;;11.35;4.47;;;;;;;2.92;97.86;100902.66;5034624;28;20383;-62
2023/04/14 05:09:01;;;;;;;11.55;5.13;;;;;;;2.92;97.60;100905.28;5022005;28;20510;-63
2023/04/14 05:11:27;;;;;;;13.20;4.80;;;;;;;2.94;97.64;100906.06;5023455;28;20041;-63
2023/04/14 05:13:52;;;;;;;9.73;4.78;;;;;;;2.94;97.86;100899.03;5034465;28;20029;-63
2023/04/14 05:16:18;;;;;;;10.77;4.57;;;;;;;2.95;97.88;100900.75;5032896;28;20026;-63
2023/04/14 05:18:43;;;;;;;14.13;5.47;;;;;;;2.96;98.32;100894.59;5027948;28;20022;-63
2023/04/14 05:21:13;;;;;;;9.73;4.65;;;;;;;2.95;98.95;100900.75;5034394;28;20108;-63
2023/04/14 05:23:41;;;;;;;11.75;4.90;;;;;;;2.94;98.62;100901.66;5034608;28;20026;-63
2023/04/14 05:26:07;;;;;;;11.27;4.55;;;;;;;2.96;98.34;100899.84;5026152;28;20025;-63
2023/04/14 05:28:32;;;;;;;13.93;5.53;;;;;;;3.00;98.78;100911.06;5034320;28;20479;-63
2023/04/14 05:30:58;;;;;;;13.38;4.82;;;;;;;3.02;99.11;100903.13;5034154;28;20063;-63
2023/04/14 05:33:23;;;;;;;12.85;4.78;;;;;;;3.02;99.08;100897.88;5033266;28;20037;-63
2023/04/14 05:35:51;;;;;;;12.52;4.88;;;;;;;3.04;99.63;100902.13;5034063;28;20025;-63
2023/04/14 05:38:18;;;;;;;12.25;5.82;;;;;;;3.09;99.39;100900.13;5031537;28;20463;-63
2023/04/14 05:40:44;;;;;;;10.75;4.63;;;;;;;3.13;99.84;100901.72;5033796;28;20033;-63
2023/04/14 05:43:09;;;;;;;12.27;5.07;;;;;;;3.19;99.85;100894.47;5033620;28;20030;-63
2023/04/14 05:45:35;;;;;;;12.95;5.13;;;;;;;3.25;100.00;100896.84;5033564;28;20072;-63
2023/04/14 05:48:00;;;;;;;14.20;4.63;;;;;;;3.33;100.00;100892.06;5024537;28;20069;-63
2023/04/14 05:50:26;;;;;;;12.82;4.80;;;;;;;3.39;100.00;100899.66;5033980;28;20104;-63
2023/04/14 05:52:51;;;;;;;13.23;4.55;;;;;;;3.45;100.00;100895.94;5029648;28;20045;-63
2023/04/14 05:55:17;;;;;;;12.23;4.90;;;;;;;3.51;99.94;100898.25;5029806;28;20530;-63
2023/04/14 05:57:42;;;;;;;12.00;4.82;;;;;;;3.59;100.00;100903.16;5065071;28;20025;-60
2023/04/14 06:00:09;;;;;;;10.50;4.60;;;;;;;3.65;99.76;100902.88;5034324;28;20079;-62
2023/04/14 06:02:35;;;;;;;12.52;4.85;;;;;;;3.71;99.67;100897.31;5034622;28;20033;-62
2023/04/14 06:05:00;;;;;;;6.95;4.55;;;;;;;3.78;99.62;100901.38;5031183;28;20022;-62
2023/04/14 06:07:26;;;;;;;11.35;4.80;;;;;;;3.84;99.31;100897.59;5034305;28;20494;-62
2023/04/14 06:09:51;;;;;;;10.75;5.03;;;;;;;3.91;98.92;100906.03;5012263;28;20129;-62
2023/04/14 06:12:16;;;;;;;16.45;5.40;;;;;;;3.96;98.71;100909.31;5028859;28;20395;-62
2023/04/14 06:14:42;;;;;;;12.43;4.75;;;;;;;4.00;98.62;100908.25;5012943;28;20475;-62
2023/04/14 06:17:07;;;;;;;14.00;5.00;;;;;;;4.03;98.21;100906.31;5015694;28;20092;-62
2023/04/14 06:19:33;;;;;;;12.43;5.35;;;;;;;4.08;98.37;100906.09;5025302;28;20049;-62
2023/04/14 06:21:58;;;;;;;9.52;4.60;;;;;;;4.14;97.99;100902.31;5021767;28;20030;-62
2023/04/14 06:24:23;;;;;;;11.00;5.10;;;;;;;4.18;97.95;100899.47;5013217;28;20037;-62
2023/04/14 06:26:48;;;;;;;13.38;5.00;;;;;;;4.25;97.91;100900.00;5028856;28;20033;-62
2023/04/14 06:29:14;;;;;;;6.75;4.57;;;;;;;4.31;97.76;100894.44;5019486;28;20038;-62
2023/04/14 06:31:39;;;;;;;13.05;5.13;;;;;;;4.37;97.91;100896.75;5020115;28;20137;-62
2023/04/14 06:34:04;;;;;;;11.05;4.50;;;;;;;4.43;96.99;100887.72;5019703;28;20033;-62
2023/04/14 06:36:30;;;;;;;11.38;4.30;;;;;;;4.49;97.29;100883.94;5020033;28;20578;-62
2023/04/14 06:38:56;;;;;;;12.15;4.50;;;;;;;4.54;96.73;100881.91;5018603;28;20033;-62
2023/04/14 06:41:21;;;;;;;13.63;5.35;;;;;;;4.61;96.62;100880.66;5024116;28;20411;-62
2023/04/14 06:43:47;;;;;;;10.73;4.43;;;;;;;4.68;96.25;100879.44;5019535;28;20030;-63
2023/04/14 06:46:12;;;;;;;9.95;4.57;;;;;;;4.77;96.37;100889.47;5022426;28;20048;-62
2023/04/14 06:48:37;;;;;;;9.82;4.72;;;;;;;4.83;95.93;100880.44;5024585;28;20057;-62
2023/04/14 06:51:03;;;;;;;10.95;4.82;;;;;;;4.92;95.55;100879.94;5032207;28;20073;-62
2023/04/14 06:53:28;;;;;;;11.63;4.65;;;;;;;4.99;95.05;100876.03;5032556;28;20029;-62
2023/04/14 06:56:00;;;;;;;10.27;4.25;;;;;;;5.10;95.36;100879.91;5031531;28;20053;-63
2023/04/14 06:58:27;;;;;;;15.20;4.80;;;;;;;5.24;95.55;100873.91;5016623;28;20107;-62
2023/04/14 07:01:00;;;;;;;13.35;4.57;;;;;;;5.38;95.00;100874.84;5020003;28;20136;-62
2023/04/14 07:03:29;;;;;;;8.98;4.07;;;;;;;5.55;93.37;100868.66;5022460;28;20407;-62
2023/04/14 07:06:01;;;;;;;7.60;3.58;;;;;;;5.75;92.62;100869.34;5029715;28;20069;-62
2023/04/14 07:08:30;;;;;;;8.90;3.63;;;;;;;6.00;91.64;100874.09;5025157;28;20026;-62
2023/04/14 07:10:59;;;;;;;11.60;4.03;;;;;;;6.26;91.93;100869.09;5036077;28;20253;-62
2023/04/14 07:13:25;;;;;;;15.55;4.45;;;;;;;6.53;91.90;100866.66;5036476;28;20052;-63
2023/04/14 07:15:50;;;;;;;10.55;3.95;;;;;;;6.80;91.34;100863.31;5028827;28;20503;-62
2023/04/14 07:18:15;;;;;;;7.60;3.75;;;;;;;7.07;89.45;100854.63;5028690;28;20051;-62
2023/04/14 07:20:41;;;;;;;10.75;4.00;;;;;;;7.35;88.40;100857.25;5036153;28;20264;-62
2023/04/14 07:23:06;;;;;;;9.07;3.97;;;;;;;7.67;86.28;100854.34;5032115;28;20026;-62
2023/04/14 07:25:34;;;;;;;10.38;3.47;;;;;;;7.96;85.97;100851.63;5024596;28;20080;-61
2023/04/14 07:27:59;;;;;;;11.55;3.65;;;;;;;8.19;81.12;100849.25;5028384;28;20159;-62
2023/04/14 07:30:26;;;;;;;8.02;3.35;;;;;;;8.45;80.68;100844.88;5044222;28;20510;-61
2023/04/14 07:32:51;;;;;;;9.52;2.97;;;;;;;8.70;78.75;100854.66;5030468;28;20045;-61
2023/04/14 07:35:16;;;;;;;9.45;3.70;;;;;;;8.89;75.94;100843.63;5032457;28;20068;-61
2023/04/14 07:37:41;;;;;;;10.98;3.40;;;;;;;9.06;74.11;100840.66;5030686;28;20497;-61
2023/04/14 07:40:07;;;;;;;6.03;3.15;;;;;;;9.35;76.59;100845.69;5023051;28;20017;-60
2023/04/14 07:42:33;;;;;;;8.90;3.40;;;;;;;9.52;72.33;100839.16;5027043;28;20032;-60
2023/04/14 07:44:58;;;;;;;5.70;2.92;;;;;;;9.70;70.82;100837.00;5026464;28;20033;-61
2023/04/14 07:47:23;;;;;;;10.13;4.10;;;;;;;9.95;72.53;100838.69;5032416;28;20018;-61
2023/04/14 07:49:48;;;;;;;8.43;3.35;;;;;;;10.21;70.53;100838.56;5034860;28;20682;-61
2023/04/14 07:52:14;;;;;;;7.85;3.20;;;;;;;10.41;69.77;100836.22;5020206;28;20038;-61
2023/04/14 07:54:39;;;;;;;7.50;3.67;;;;;;;10.60;68.72;100827.69;5016477;28;20096;-62
2023/04/14 07:57:07;;;;;;;7.07;2.72;;;;;;;10.76;66.16;100841.50;5030813;28;20374;-61
2023/04/14 07:59:32;;;;;;;8.52;2.97;;;;;;;11.00;65.96;100835.22;5033561;28;20038;-61
2023/04/14 08:01:57;;;;;;;9.13;3.13;;;;;;;11.06;62.19;100824.13;5030653;28;20319;-62
2023/04/14 08:04:23;;;;;;;4.78;2.63;;;;;;;11.19;63.35;100835.47;5033781;28;20060;-62
2023/04/14 08:06:48;;;;;;;4.53;2.45;;;;;;;11.30;60.77;100837.25;5029162;28;20038;-62
2023/04/14 08:09:14;;;;;;;8.00;2.40;;;;;;;11.41;62.60;100834.59;5030581;28;20490;-60
2023/04/14 08:11:40;;;;;;;4.88;2.30;;;;;;;11.44;58.82;100830.81;5034729;28;20089;-62
2023/04/14 08:14:05;;;;;;;5.03;2.10;;;;;;;11.56;59.90;100835.16;5035267;28;20089;-62
2023/04/14 08:16:35;;;;;;;3.63;2.10;;;;;;;11.71;59.62;100832.22;5027423;28;20088;-61
2023/04/14 08:19:01;;;;;;;3.67;2.08;;;;;;;11.87;60.69;100832.66;5027891;28;20045;-61
2023/04/14 08:21:26;;;;;;;6.50;2.63;;;;;;;12.01;58.69;100829.75;5034646;28;20026;-62
2023/04/14 08:23:51;;;;;;;4.32;2.35;;;;;;;12.29;57.73;100829.25;5035049;28;20044;-62
2023/04/14 08:26:17;;;;;;;4.38;2.47;;;;;;;12.43;57.45;100836.09;5029925;28;20395;-62
2023/04/14 08:28:42;;;;;;;5.10;2.20;;;;;;;12.58;57.79;100830.28;5029471;28;20114;-62
2023/04/14 08:31:07;;;;;;;5.20;2.35;;;;;;;12.88;58.86;100830.44;5034458;28;20114;-62
2023/04/14 08:33:33;;;;;;;4.25;2.10;;;;;;;13.10;56.17;100827.59;5026524;28;20128;-61
2023/04/14 08:35:58;;;;;;;5.80;1.90;;;;;;;13.14;55.40;100826.34;5025474;28;20025;-62
2023/04/14 08:38:23;;;;;;;5.05;1.88;;;;;;;13.23;51.76;100829.19;5026518;28;20435;-62
2023/04/14 08:40:55;;;;;;;5.05;2.42;;;;;;;13.32;53.99;100823.94;5020405;28;20026;-62
2023/04/14 08:43:20;;;;;;;6.93;2.28;;;;;;;13.51;52.92;100823.13;5035776;28;20112;-62
2023/04/14 08:45:50;;;;;;;5.60;2.00;;;;;;;13.91;53.52;100820.53;5022941;28;20056;-62
2023/04/14 08:48:18;;;;;;;;;;;;;;;14.07;58.69;100820.78;5035806;28;20034;-62
2023/04/14 08:50:51;;;;;;;4.68;1.83;;;;;;;14.23;51.89;100817.53;5043412;28;19904;-62
2023/04/14 08:53:19;;;;;;;7.78;1.98;;;;;;;14.36;49.78;100823.44;5025398;28;20061;-62
2023/04/14 08:55:45;;;;;;;5.82;2.30;;;;;;;14.54;49.78;100814.69;5031747;28;20493;-63
2023/04/14 08:58:11;;;;;;;4.05;2.20;;;;;;;14.61;49.28;100826.53;5035145;28;20537;-62
2023/04/14 09:00:38;;;;;;;2.80;1.50;;;;;;;14.65;48.11;100821.72;5033995;28;20099;-62
2023/04/14 09:03:04;;;;;;;7.28;1.90;;;;;;;14.57;48.30;100831.28;5042578;28;20083;-62
2023/04/14 09:05:30;;;;;;;8.23;2.13;;;;;;;14.58;47.89;100819.59;5039108;28;20056;-67
2023/04/14 09:07:56;;;;;;;5.30;2.28;;;;;;;14.60;48.90;100825.69;5043719;28;20033;-62
2023/04/14 09:10:23;;;;;;;6.93;1.90;;;;;;;14.74;49.31;100820.88;5017313;28;20050;-63
2023/04/14 09:12:48;;;;;;;6.10;1.65;;;;;;;14.72;47.29;100814.81;5030450;28;20117;-62
2023/04/14 09:15:15;;;;;;;6.63;1.80;;;;;;;14.72;48.06;100818.34;5035938;28;20053;-62
2023/04/14 09:17:41;;;;;;;6.75;1.80;;;;;;;14.72;46.93;100812.13;5035892;28;20030;-62
2023/04/14 09:20:07;;;;;;;4.72;2.17;;;;;;;14.78;48.86;100807.03;5024162;28;20049;-62
2023/04/14 09:22:33;;;;;;;5.75;1.45;;;;;;;14.74;48.25;100813.69;5022813;28;20190;-62
2023/04/14 09:24:58;;;;;;;5.32;2.30;;;;;;;14.69;48.77;100807.94;5035182;28;20029;-62
2023/04/14 09:27:25;;;;;;;2.67;1.55;;;;;;;14.89;48.25;100803.34;5029534;28;20517;-62
2023/04/14 09:29:52;;;;;;;8.90;2.30;;;;;;;15.11;49.42;100802.13;5033705;28;20466;-62
2023/04/14 09:32:18;;;;;;;7.40;2.00;;;;;;;15.21;46.53;100804.75;5030074;28;20034;-62
2023/04/14 09:34:52;;;;;;;4.70;2.17;;;;;;;15.53;47.26;100798.91;5025479;28;20475;-63
2023/04/14 09:37:18;;;;;;;6.47;2.00;;;;;;;15.59;46.22;100796.63;5028927;28;20520;-63
2023/04/14 09:39:49;;;;;;;5.68;2.20;;;;;;;15.61;46.26;100802.69;5035250;28;20033;-63
2023/04/14 09:42:16;;;;;;;7.22;2.28;;;;;;;15.44;46.27;100790.97;5025612;28;20108;-63
2023/04/14 09:45:03;;;;;;;9.25;2.22;;;;;;;15.54;49.29;100786.41;5031291;28;20037;-66
2023/04/14 09:47:30;;;;;;;4.40;1.95;;;;;;;15.80;44.84;100791.03;5028513;28;20290;-63
2023/04/14 09:49:58;;;;;;;6.03;2.00;;;;;;;15.96;47.22;100777.78;5026757;28;20022;-63
2023/04/14 09:52:36;;;;;;;4.70;1.95;;;;;;;16.13;47.56;100781.44;5026113;28;20395;-61
2023/04/14 09:55:05;;;;;;;4.20;1.60;;;;;;;16.00;43.03;100781.00;5018010;28;20040;-63
2023/04/14 09:57:30;;;;;;;;;;;;;;;16.18;49.34;100783.66;5028398;28;20121;-62
2023/04/14 09:59:56;;;;;;;4.43;1.80;;;;;;;16.28;44.80;100777.19;5034021;28;20015;-63
2023/04/14 10:02:21;;;;;;;5.85;1.95;;;;;;;16.51;43.04;100775.84;5023683;28;20040;-62
2023/04/14 10:05:03;;;;;;;4.85;1.77;;;;;;;16.50;43.91;100774.16;5028720;28;20025;-62
2023/04/14 10:07:29;;;;;;;4.60;1.83;;;;;;;16.46;41.92;100777.16;5026780;28;20033;-62
2023/04/14 10:09:55;;;;;;;6.80;1.70;;;;;;;16.54;41.43;100767.50;5028429;28;20042;-62
2023/04/14 10:12:20;;;;;;;4.22;1.60;;;;;;;16.67;41.85;100759.84;5028306;28;20057;-62
2023/04/14 10:14:45;;;;;;;4.70;1.80;;;;;;;16.55;41.27;100755.75;5034148;28;20034;-62
2023/04/14 10:17:12;;;;;;;4.47;1.95;;;;;;;16.21;41.98;100757.38;5033658;28;20044;-63
2023/04/14 10:19:37;;;;;;;4.78;1.80;;;;;;;15.98;41.81;100749.00;5035396;28;20406;-62
2023/04/14 10:22:04;;;;;;;7.22;1.98;;;;;;;16.07;43.36;100744.53;5021162;28;20037;-62
2023/04/14 10:24:31;;;;;;;4.50;1.73;;;;;;;16.15;42.72;100744.59;5034740;28;20555;-63
2023/04/14 10:26:58;;;;;;;3.80;1.70;;;;;;;16.11;42.89;100756.63;5032508;28;20041;-62
2023/04/14 10:29:23;;;;;;;7.05;1.95;;;;;;;16.40;43.51;100747.44;5015134;28;20491;-62
2023/04/14 10:31:56;;;;;;;5.60;2.10;;;;;;;16.58;42.64;100736.66;5021264;28;20085;-62
2023/04/14 10:34:23;;;;;;;6.07;1.90;;;;;;;16.45;41.31;100737.94;5027797;28;20093;-62
2023/04/14 10:36:48;;;;;;;5.85;1.70;;;;;;;16.61;41.78;100731.00;5026569;28;20494;-62
2023/04/14 10:39:20;;;;;;;4.78;2.20;;;;;;;16.65;41.98;100733.19;5026999;28;20346;-61
2023/04/14 10:41:49;;;;;;;5.85;2.03;;;;;;;16.68;42.07;100733.88;5030707;28;20037;-62
2023/04/14 10:44:27;;;;;;;5.25;1.90;;;;;;;16.77;42.06;100735.56;5034725;28;20073;-62
2023/04/14 10:46:55;;;;;;;7.95;2.15;;;;;;;16.73;40.40;100726.19;5032078;28;20029;-62
2023/04/14 10:49:29;;;;;;;5.68;1.98;;;;;;;16.57;41.51;100719.75;5030660;28;20428;-58
2023/04/14 10:51:57;;;;;;;5.60;1.98;;;;;;;16.53;40.80;100717.53;5023156;28;20212;-63
2023/04/14 10:54:22;;;;;;;3.72;1.48;;;;;;;16.54;41.21;100719.22;5020717;28;20061;-62
2023/04/14 10:57:14;;;;;;;4.83;1.77;;;;;;;16.62;43.27;100722.78;5024424;28;20560;-62
2023/04/14 10:59:46;;;;;;;6.15;1.98;;;;;;;16.35;41.13;100713.06;5025856;28;20755;-62
2023/04/14 11:02:52;;;;;;;2.88;1.65;;;;;;;16.40;42.92;100712.59;5026833;28;20406;-63
2023/04/14 11:05:19;;;;;;;2.50;1.60;;;;;;;16.14;40.78;100715.28;5018133;28;20042;-62
2023/04/14 11:07:47;;;;;;;4.75;1.75;;;;;;;16.03;40.55;100714.53;5029765;28;20021;-63
2023/04/14 11:10:18;;;;;;;4.43;1.80;;;;;;;16.23;41.31;100717.03;5031104;28;20047;-62
2023/04/14 11:12:45;;;;;;;4.88;1.77;;;;;;;16.24;39.63;100710.69;5026539;28;20029;-63
2023/04/14 11:15:10;;;;;;;5.07;1.98;;;;;;;16.39;39.95;100708.25;5029803;28;20025;-62
2023/04/14 11:17:37;;;;;;;4.25;1.80;;;;;;;16.56;39.57;100701.13;5024599;28;20075;-62
2023/04/14 11:20:13;;;;;;;6.60;1.67;;;;;;;16.88;40.39;100696.94;5024461;28;20072;-62
2023/04/14 11:22:40;;;;;;;5.20;1.83;;;;;;;16.84;38.97;100704.44;5024486;28;20032;-62
2023/04/14 11:25:07;;;;;;;6.00;1.67;;;;;;;16.91;38.50;100704.66;5021552;28;20455;-61
2023/04/14 11:27:33;;;;;;;3.88;1.60;;;;;;;16.76;38.43;100701.72;5025777;28;20037;-62